createdAt,value
2023-05-19T00:00:27.777Z,11.2500
2023-05-19T00:01:35.813Z,11.2292
2023-05-19T00:02:44.112Z,11.2380
2023-05-19T00:03:52.069Z,11.2284
2023-05-19T00:05:00.145Z,11.1409
2023-05-19T00:06:08.276Z,11.1123
2023-05-19T00:07:16.238Z,11.1052
2023-05-19T00:08:24.314Z,11.0970
2023-05-19T00:09:32.389Z,11.1075
2023-05-19T00:10:40.435Z,11.0625
2023-05-19T00:11:48.664Z,11.0719
2023-05-19T00:12:56.565Z,11.0827
2023-05-19T00:14:04.472Z,11.0221
2023-05-19T00:15:12.535Z,10.9999
2023-05-19T00:16:20.648Z,11.0364
2023-05-19T00:17:28.876Z,11.1142
2023-05-19T00:18:36.868Z,11.1911
2023-05-19T00:19:44.913Z,11.2138
2023-05-19T00:20:52.959Z,11.1827
2023-05-19T00:22:01.117Z,11.1975
2023-05-19T00:23:09.238Z,11.1405
2023-05-19T00:24:17.330Z,11.1544
2023-05-19T00:25:25.301Z,11.1869
2023-05-19T00:26:33.358Z,11.1895
2023-05-19T00:27:41.421Z,11.1073
2023-05-19T00:28:49.401Z,11.0291
2023-05-19T00:29:57.470Z,11.1060
2023-05-19T00:31:05.460Z,11.2325
2023-05-19T00:32:13.745Z,11.2525
2023-05-19T00:33:21.759Z,11.2513
2023-05-19T00:34:29.905Z,11.2496
2023-05-19T00:35:37.999Z,11.2487
2023-05-19T00:36:45.922Z,11.1998
2023-05-19T00:37:54.009Z,11.1068
2023-05-19T00:39:02.086Z,11.1169
2023-05-19T00:40:10.197Z,11.1226
2023-05-19T00:41:18.189Z,11.0061
2023-05-19T00:42:26.384Z,10.9715
2023-05-19T00:43:34.205Z,10.9435
2023-05-19T00:44:42.231Z,10.9893
2023-05-19T00:45:50.377Z,11.1329
2023-05-19T00:46:58.570Z,11.1605
2023-05-19T00:48:06.643Z,11.1796
2023-05-19T00:49:14.611Z,11.1243
2023-05-19T00:50:22.722Z,11.1584
2023-05-19T00:51:30.812Z,11.0825
2023-05-19T00:52:38.815Z,11.1041
2023-05-19T00:53:46.898Z,11.1096
2023-05-19T00:54:54.957Z,11.0919
2023-05-19T00:56:03.072Z,11.0205
2023-05-19T00:57:11.210Z,10.9296
2023-05-19T00:58:18.987Z,10.9523
2023-05-19T00:59:27.071Z,10.9694
2023-05-19T01:00:35.372Z,10.9824
2023-05-19T01:01:43.625Z,10.9772
2023-05-19T01:02:51.511Z,11.0108
2023-05-19T01:03:59.653Z,11.0335
2023-05-19T01:05:07.562Z,11.0463
2023-05-19T01:06:15.794Z,11.0320
2023-05-19T01:07:23.631Z,11.0133
2023-05-19T01:08:31.812Z,10.9929
2023-05-19T01:09:39.737Z,10.9973
2023-05-19T01:10:47.820Z,10.9557
2023-05-19T01:11:55.954Z,10.9301
2023-05-19T01:13:03.820Z,10.9273
2023-05-19T01:14:11.962Z,10.8628
2023-05-19T01:15:19.958Z,10.8023
2023-05-19T01:16:28.140Z,10.7728
2023-05-19T01:17:36.370Z,10.7787
2023-05-19T01:18:44.548Z,10.7470
2023-05-19T01:19:52.469Z,10.7320
2023-05-19T01:21:00.396Z,10.7657
2023-05-19T01:22:08.434Z,10.7741
2023-05-19T01:23:16.805Z,10.7558
2023-05-19T01:24:24.710Z,10.7999
2023-05-19T01:25:32.707Z,10.8083
2023-05-19T01:26:40.715Z,10.7238
2023-05-19T01:27:48.597Z,10.7529
2023-05-19T01:28:56.678Z,10.7547
2023-05-19T01:30:04.757Z,10.7226
2023-05-19T01:31:13.072Z,10.6362
2023-05-19T01:32:21.084Z,10.5655
2023-05-19T01:33:29.232Z,10.5174
2023-05-19T01:34:37.198Z,10.5132
2023-05-19T01:35:45.170Z,10.5527
2023-05-19T01:36:53.316Z,10.4913
2023-05-19T01:38:01.493Z,10.5281
2023-05-19T01:39:09.352Z,10.5943
2023-05-19T01:40:17.412Z,10.6208
2023-05-19T01:41:25.622Z,10.6177
2023-05-19T01:42:33.453Z,10.6087
2023-05-19T01:43:41.472Z,10.6692
2023-05-19T01:44:49.547Z,10.6662
2023-05-19T01:45:57.730Z,10.6074
2023-05-19T01:47:05.704Z,10.6587
2023-05-19T01:48:13.937Z,10.7026
2023-05-19T01:49:22.051Z,10.7188
2023-05-19T01:50:30.190Z,10.6610
2023-05-19T01:51:38.068Z,10.6219
2023-05-19T01:52:46.192Z,10.6318
2023-05-19T01:53:54.198Z,10.5599
2023-05-19T01:55:02.217Z,10.4529
2023-05-19T01:56:10.335Z,10.4125
2023-05-19T01:57:18.230Z,10.5002
2023-05-19T01:58:26.298Z,10.5363
2023-05-19T01:59:34.367Z,10.5737
2023-05-19T02:00:42.536Z,10.5983
2023-05-19T02:01:50.564Z,10.6362
2023-05-19T02:02:58.725Z,10.6543
2023-05-19T02:04:06.765Z,10.6711
2023-05-19T02:05:14.975Z,10.6931
2023-05-19T02:06:22.819Z,10.6269
2023-05-19T02:07:30.971Z,10.6189
2023-05-19T02:08:38.992Z,10.6459
2023-05-19T02:09:47.051Z,10.6255
2023-05-19T02:10:55.155Z,10.6324
2023-05-19T02:12:03.070Z,10.5429
2023-05-19T02:13:11.100Z,10.5401
2023-05-19T02:14:19.168Z,10.5574
2023-05-19T02:15:27.371Z,10.5658
2023-05-19T02:16:35.448Z,10.5157
2023-05-19T02:17:43.679Z,10.5391
2023-05-19T02:18:51.622Z,10.5391
2023-05-19T02:19:59.619Z,10.5037
2023-05-19T02:21:07.881Z,10.4993
2023-05-19T02:22:15.802Z,10.4775
2023-05-19T02:23:23.813Z,10.5326
2023-05-19T02:24:31.881Z,10.5649
2023-05-19T02:25:39.943Z,10.5117
2023-05-19T02:26:47.859Z,10.4594
2023-05-19T02:27:55.980Z,10.4943
2023-05-19T02:29:04.011Z,10.5132
2023-05-19T02:30:12.459Z,10.5727
2023-05-19T02:31:20.304Z,10.5876
2023-05-19T02:32:28.351Z,10.5286
2023-05-19T02:33:36.459Z,10.5088
2023-05-19T02:34:44.465Z,10.4220
2023-05-19T02:35:52.523Z,10.4310
2023-05-19T02:37:00.728Z,10.5162
2023-05-19T02:38:08.641Z,10.4766
2023-05-19T02:39:16.732Z,10.4802
2023-05-19T02:40:24.729Z,10.4174
2023-05-19T02:41:32.693Z,10.4098
2023-05-19T02:42:40.756Z,10.3595
2023-05-19T02:43:48.807Z,10.3944
2023-05-19T02:44:57.090Z,10.4344
2023-05-19T02:46:05.118Z,10.5437
2023-05-19T02:47:13.119Z,10.4413
2023-05-19T02:48:21.077Z,10.3644
2023-05-19T02:49:29.259Z,10.3072
2023-05-19T02:50:37.343Z,10.3440
2023-05-19T02:51:45.527Z,10.3801
2023-05-19T02:52:53.498Z,10.3564
2023-05-19T02:54:01.630Z,10.2805
2023-05-19T02:55:09.559Z,10.3028
2023-05-19T02:56:17.688Z,10.3955
2023-05-19T02:57:25.572Z,10.3370
2023-05-19T02:58:33.650Z,10.3070
2023-05-19T02:59:42.102Z,10.2847
2023-05-19T03:00:49.881Z,10.3373
2023-05-19T03:01:58.015Z,10.3936
2023-05-19T03:03:06.096Z,10.4621
2023-05-19T03:04:14.082Z,10.4819
2023-05-19T03:05:22.132Z,10.4033
2023-05-19T03:06:30.212Z,10.3650
2023-05-19T03:07:38.349Z,10.3898
2023-05-19T03:08:46.306Z,10.4785
2023-05-19T03:09:54.383Z,10.5313
2023-05-19T03:11:02.328Z,10.4953
2023-05-19T03:12:10.395Z,10.3415
2023-05-19T03:13:18.446Z,10.3001
2023-05-19T03:14:26.611Z,10.2408
2023-05-19T03:15:34.695Z,10.2492
2023-05-19T03:16:42.784Z,10.2912
2023-05-19T03:17:50.933Z,10.2891
2023-05-19T03:18:58.984Z,10.1834
2023-05-19T03:20:06.931Z,10.1123
2023-05-19T03:21:14.847Z,10.1086
2023-05-19T03:22:23.010Z,10.1058
2023-05-19T03:23:31.099Z,10.1172
2023-05-19T03:24:39.201Z,10.1819
2023-05-19T03:25:47.068Z,10.1748
2023-05-19T03:26:55.160Z,10.2374
2023-05-19T03:28:03.173Z,10.1142
2023-05-19T03:29:11.476Z,10.0735
2023-05-19T03:30:19.461Z,10.0175
2023-05-19T03:31:27.504Z,10.1840
2023-05-19T03:32:35.604Z,10.1842
2023-05-19T03:33:43.853Z,10.0634
2023-05-19T03:34:51.800Z,9.9936
2023-05-19T03:35:59.786Z,10.0003
2023-05-19T03:37:07.860Z,9.9509
2023-05-19T03:38:15.871Z,9.9173
2023-05-19T03:39:23.914Z,9.9681
2023-05-19T03:40:32.136Z,10.0552
2023-05-19T03:41:39.934Z,9.9046
2023-05-19T03:42:47.963Z,9.8182
2023-05-19T03:43:56.190Z,9.7497
2023-05-19T03:45:04.226Z,9.8750
2023-05-19T03:46:12.334Z,9.8140
2023-05-19T03:47:20.452Z,9.7974
2023-05-19T03:48:28.390Z,9.7403
2023-05-19T03:49:36.442Z,9.7644
2023-05-19T03:50:44.837Z,9.7461
2023-05-19T03:51:52.637Z,9.6829
2023-05-19T03:53:00.679Z,9.7359
2023-05-19T03:54:08.672Z,9.7586
2023-05-19T03:55:16.634Z,9.7226
2023-05-19T03:56:24.678Z,9.7136
2023-05-19T03:57:32.774Z,9.7251
2023-05-19T03:58:40.969Z,9.6909
2023-05-19T03:59:49.011Z,9.7369
2023-05-19T04:00:57.054Z,9.7289
2023-05-19T04:02:05.586Z,9.7338
2023-05-19T04:03:13.265Z,9.8275
2023-05-19T04:04:21.274Z,9.8698
2023-05-19T04:05:29.301Z,9.8719
2023-05-19T04:06:37.331Z,9.9072
2023-05-19T04:07:45.623Z,9.9299
2023-05-19T04:08:53.501Z,9.9204
2023-05-19T04:10:01.423Z,9.9656
2023-05-19T04:11:09.468Z,9.8979
2023-05-19T04:12:17.552Z,9.9517
2023-05-19T04:13:25.943Z,9.9559
2023-05-19T04:14:33.829Z,9.9965
2023-05-19T04:15:41.918Z,9.9484
2023-05-19T04:16:49.905Z,9.9051
2023-05-19T04:17:58.015Z,9.9465
2023-05-19T04:19:06.149Z,9.9856
2023-05-19T04:20:14.223Z,9.9849
2023-05-19T04:21:22.153Z,10.0461
2023-05-19T04:22:30.205Z,10.1065
2023-05-19T04:23:38.477Z,10.0478
2023-05-19T04:24:46.253Z,10.1031
2023-05-19T04:25:54.330Z,10.0327
2023-05-19T04:27:02.374Z,10.0896
2023-05-19T04:28:10.527Z,10.1611
2023-05-19T04:29:18.791Z,10.1815
2023-05-19T04:30:26.767Z,10.1779
2023-05-19T04:31:34.999Z,10.2507
2023-05-19T04:32:42.845Z,10.2414
2023-05-19T04:33:50.924Z,10.2629
2023-05-19T04:34:58.961Z,10.1886
2023-05-19T04:36:07.003Z,10.2301
2023-05-19T04:37:15.146Z,10.2452
2023-05-19T04:38:23.157Z,10.2254
2023-05-19T04:39:31.070Z,10.1851
2023-05-19T04:40:39.158Z,10.1315
2023-05-19T04:41:47.242Z,10.1775
2023-05-19T04:42:55.411Z,10.2607
2023-05-19T04:44:03.457Z,10.3047
2023-05-19T04:45:11.565Z,10.2671
2023-05-19T04:46:19.600Z,10.3572
2023-05-19T04:47:27.895Z,10.4228
2023-05-19T04:48:35.745Z,10.4806
2023-05-19T04:49:43.832Z,10.4619
2023-05-19T04:50:51.965Z,10.4533
2023-05-19T04:51:59.926Z,10.5019
2023-05-19T04:53:08.037Z,10.5136
2023-05-19T04:54:15.902Z,10.4873
2023-05-19T04:55:23.966Z,10.5199
2023-05-19T04:56:32.024Z,10.5082
2023-05-19T04:57:40.245Z,10.5521
2023-05-19T04:58:48.317Z,10.5761
2023-05-19T04:59:56.578Z,10.6511
2023-05-19T05:01:04.380Z,10.6316
2023-05-19T05:02:12.607Z,10.6810
2023-05-19T05:03:20.695Z,10.8571
2023-05-19T05:04:28.617Z,10.9263
2023-05-19T05:05:36.769Z,10.8619
2023-05-19T05:06:44.689Z,10.9105
2023-05-19T05:07:52.811Z,10.8794
2023-05-19T05:09:00.699Z,11.0255
2023-05-19T05:10:08.780Z,11.0465
2023-05-19T05:11:16.815Z,11.0520
2023-05-19T05:12:25.000Z,11.0108
2023-05-19T05:13:33.082Z,11.0816
2023-05-19T05:14:41.145Z,11.1928
2023-05-19T05:15:49.210Z,11.2666
2023-05-19T05:16:57.385Z,11.2841
2023-05-19T05:18:05.381Z,11.2695
2023-05-19T05:19:13.595Z,11.3128
2023-05-19T05:20:21.528Z,11.3910
2023-05-19T05:21:29.503Z,11.4413
2023-05-19T05:22:37.555Z,11.4697
2023-05-19T05:23:45.519Z,11.4232
2023-05-19T05:24:53.554Z,11.4238
2023-05-19T05:26:01.614Z,11.4106
2023-05-19T05:27:10.095Z,11.4295
2023-05-19T05:28:17.929Z,11.4207
2023-05-19T05:29:25.986Z,11.4163
2023-05-19T05:30:33.957Z,11.2872
2023-05-19T05:31:42.094Z,11.3028
2023-05-19T05:32:50.211Z,11.3093
2023-05-19T05:33:58.217Z,11.2366
2023-05-19T05:35:06.240Z,11.2092
2023-05-19T05:36:14.434Z,11.2689
2023-05-19T05:37:22.371Z,11.1752
2023-05-19T05:38:30.304Z,11.2746
2023-05-19T05:39:38.365Z,11.1728
2023-05-19T05:40:46.395Z,11.0955
2023-05-19T05:41:54.616Z,11.0999
2023-05-19T05:43:02.641Z,10.9725
2023-05-19T05:44:10.700Z,10.8916
2023-05-19T05:45:18.816Z,10.9303
2023-05-19T05:46:27.076Z,10.9032
2023-05-19T05:47:34.913Z,10.8844
2023-05-19T05:48:43.035Z,10.9216
2023-05-19T05:49:52.995Z,11.0259
2023-05-19T05:51:03.929Z,11.1033
2023-05-19T05:52:11.836Z,10.9837
2023-05-19T05:53:19.940Z,10.9792
2023-05-19T05:54:28.014Z,11.0709
2023-05-19T05:55:36.185Z,10.9723
2023-05-19T05:56:44.239Z,10.9452
2023-05-19T05:57:52.305Z,10.9032
2023-05-19T05:59:00.414Z,10.9752
2023-05-19T06:00:08.574Z,10.9011
2023-05-19T06:01:16.506Z,10.8483
2023-05-19T06:02:24.579Z,10.8599
2023-05-19T06:03:32.708Z,10.9883
2023-05-19T06:04:40.769Z,11.0650
2023-05-19T06:05:48.777Z,11.0556
2023-05-19T06:06:56.638Z,11.0486
2023-05-19T06:08:04.780Z,10.9586
2023-05-19T06:09:12.820Z,10.8216
2023-05-19T06:10:20.942Z,10.8401
2023-05-19T06:11:29.040Z,10.7863
2023-05-19T06:12:37.100Z,10.8403
2023-05-19T06:13:45.337Z,10.8283
2023-05-19T06:14:53.197Z,10.7552
2023-05-19T06:16:02.244Z,10.7106
2023-05-19T06:17:09.329Z,10.7878
2023-05-19T06:18:17.448Z,10.7381
2023-05-19T06:19:25.640Z,10.8292
2023-05-19T06:20:33.567Z,10.8964
2023-05-19T06:21:41.415Z,10.9374
2023-05-19T06:22:49.511Z,11.0202
2023-05-19T06:23:57.730Z,11.0162
2023-05-19T06:25:05.921Z,11.0251
2023-05-19T06:26:13.803Z,10.9952
2023-05-19T06:27:21.831Z,10.9814
2023-05-19T06:28:29.967Z,10.8989
2023-05-19T06:29:38.079Z,10.8182
2023-05-19T06:30:46.052Z,10.7289
2023-05-19T06:31:54.250Z,10.7671
2023-05-19T06:33:02.177Z,10.7764
2023-05-19T06:34:10.251Z,10.8210
2023-05-19T06:35:18.193Z,10.8598
2023-05-19T06:36:26.225Z,10.8218
2023-05-19T06:37:34.301Z,10.8571
2023-05-19T06:38:42.467Z,10.7976
2023-05-19T06:39:50.505Z,10.7127
2023-05-19T06:40:58.830Z,10.6156
2023-05-19T06:42:06.671Z,10.6026
2023-05-19T06:43:14.705Z,10.5382
2023-05-19T06:44:22.752Z,10.5571
2023-05-19T06:45:30.790Z,10.6250
2023-05-19T06:46:39.204Z,10.6751
2023-05-19T06:47:46.982Z,10.6452
2023-05-19T06:48:55.170Z,10.6229
2023-05-19T06:50:02.969Z,10.8018
2023-05-19T06:51:11.027Z,10.7959
2023-05-19T06:52:19.104Z,10.7770
2023-05-19T06:53:27.276Z,10.8193
2023-05-19T06:54:35.344Z,10.8273
2023-05-19T06:55:57.540Z,10.8031
2023-05-19T06:56:56.528Z,10.7745
2023-05-19T06:58:04.394Z,10.8245
2023-05-19T06:59:12.448Z,10.9137
2023-05-19T07:00:22.894Z,10.8996
2023-05-19T07:01:33.643Z,10.9269
2023-05-19T07:02:41.660Z,10.8109
2023-05-19T07:03:49.488Z,10.7341
2023-05-19T07:04:57.486Z,10.6597
2023-05-19T07:06:07.931Z,10.6023
2023-05-19T07:07:18.544Z,10.7234
2023-05-19T07:08:26.679Z,10.7371
2023-05-19T07:09:34.932Z,10.7461
2023-05-19T07:10:42.819Z,10.8575
2023-05-19T07:11:50.851Z,10.8348
2023-05-19T07:12:59.040Z,11.0539
2023-05-19T07:14:06.900Z,11.1968
2023-05-19T07:15:14.927Z,11.2597
2023-05-19T07:16:23.037Z,11.3179
2023-05-19T07:17:31.040Z,11.3631
2023-05-19T07:18:39.145Z,11.3852
2023-05-19T07:19:47.221Z,11.4108
2023-05-19T07:20:55.214Z,11.5048
2023-05-19T07:22:03.470Z,11.6578
2023-05-19T07:23:11.477Z,11.5821
2023-05-19T07:24:19.469Z,11.6582
2023-05-19T07:25:27.552Z,11.6938
2023-05-19T07:26:35.642Z,11.7701
2023-05-19T07:27:43.768Z,11.7589
2023-05-19T07:28:51.712Z,11.7900
2023-05-19T07:29:59.812Z,11.9609
2023-05-19T07:31:07.753Z,12.0013
2023-05-19T07:32:15.876Z,12.0290
2023-05-19T07:33:23.925Z,12.0679
2023-05-19T07:34:32.074Z,12.1486
2023-05-19T07:35:40.147Z,12.2681
2023-05-19T07:36:48.182Z,12.1909
2023-05-19T07:37:56.352Z,12.0650
2023-05-19T07:39:04.344Z,11.8893
2023-05-19T07:40:12.372Z,11.7793
2023-05-19T07:41:20.387Z,11.7972
2023-05-19T07:42:28.545Z,11.8983
2023-05-19T07:43:36.598Z,12.0255
2023-05-19T07:44:44.809Z,12.2132
2023-05-19T07:45:52.776Z,12.3236
2023-05-19T07:47:00.687Z,12.3780
2023-05-19T07:48:08.987Z,12.4907
2023-05-19T07:49:16.726Z,12.5888
2023-05-19T07:50:24.792Z,12.6450
2023-05-19T07:51:32.868Z,12.8028
2023-05-19T07:52:41.151Z,12.7707
2023-05-19T07:53:49.154Z,12.9248
2023-05-19T07:54:57.144Z,13.1062
2023-05-19T07:56:05.391Z,13.2027
2023-05-19T07:57:13.376Z,13.1797
2023-05-19T07:58:21.337Z,13.2966
2023-05-19T07:59:29.386Z,13.4787
2023-05-19T08:00:37.540Z,13.4208
2023-05-19T08:01:45.519Z,13.3641
2023-05-19T08:02:53.674Z,13.3479
2023-05-19T08:04:01.580Z,13.2930
2023-05-19T08:05:09.573Z,13.2338
2023-05-19T08:06:17.674Z,13.2253
2023-05-19T08:07:26.023Z,13.2573
2023-05-19T08:08:34.084Z,13.1598
2023-05-19T08:09:41.946Z,13.1821
2023-05-19T08:10:50.058Z,13.1587
2023-05-19T08:11:58.193Z,13.0057
2023-05-19T08:13:06.102Z,12.9758
2023-05-19T08:14:14.173Z,12.9424
2023-05-19T08:15:22.308Z,12.7215
2023-05-19T08:16:30.635Z,12.6597
2023-05-19T08:17:38.319Z,12.6824
2023-05-19T08:18:46.387Z,12.7599
2023-05-19T08:19:54.332Z,12.6918
2023-05-19T08:21:02.541Z,12.6431
2023-05-19T08:22:10.615Z,12.6498
2023-05-19T08:23:18.685Z,12.6715
2023-05-19T08:24:26.792Z,12.7499
2023-05-19T08:25:34.812Z,12.6689
2023-05-19T08:26:42.879Z,12.6715
2023-05-19T08:27:51.089Z,12.6899
2023-05-19T08:28:59.029Z,12.6363
2023-05-19T08:30:07.024Z,12.6408
2023-05-19T08:31:15.247Z,12.6429
2023-05-19T08:32:23.099Z,12.6374
2023-05-19T08:33:31.083Z,12.6109
2023-05-19T08:34:39.139Z,12.5911
2023-05-19T08:35:47.489Z,12.5230
2023-05-19T08:36:55.546Z,12.5735
2023-05-19T08:38:03.453Z,12.8394
2023-05-19T08:39:11.591Z,12.7528
2023-05-19T08:40:19.656Z,12.7808
2023-05-19T08:41:27.820Z,12.7484
2023-05-19T08:42:35.767Z,12.7578
2023-05-19T08:43:43.831Z,12.6500
2023-05-19T08:44:52.187Z,12.6097
2023-05-19T08:45:59.896Z,12.5941
2023-05-19T08:47:08.021Z,12.6820
2023-05-19T08:48:16.003Z,12.7261
2023-05-19T08:49:25.570Z,12.8264
2023-05-19T08:50:32.506Z,12.9996
2023-05-19T08:51:40.155Z,13.2462
2023-05-19T08:52:51.796Z,13.4179
2023-05-19T08:54:01.288Z,13.5130
2023-05-19T08:55:09.340Z,13.5562
2023-05-19T08:56:17.331Z,13.6212
2023-05-19T08:57:25.475Z,13.7721
2023-05-19T08:58:33.515Z,13.9264
2023-05-19T08:59:41.402Z,14.0462
2023-05-19T09:00:49.517Z,14.1166
2023-05-19T09:01:57.578Z,14.1278
2023-05-19T09:04:13.911Z,14.1881
2023-05-19T09:05:21.914Z,14.2710
2023-05-19T09:06:29.921Z,14.2684
2023-05-19T09:07:38.072Z,14.0691
2023-05-19T09:08:45.998Z,13.8717
2023-05-19T09:09:54.349Z,13.8505
2023-05-19T09:11:02.171Z,13.9489
2023-05-19T09:12:10.291Z,14.0166
2023-05-19T09:13:18.255Z,14.2079
2023-05-19T09:14:26.216Z,14.2857
2023-05-19T09:15:34.602Z,14.0939
2023-05-19T09:16:42.389Z,13.8972
2023-05-19T09:17:50.640Z,13.5939
2023-05-19T09:18:58.621Z,13.4843
2023-05-19T09:20:06.680Z,13.5939
2023-05-19T09:21:14.716Z,13.7139
2023-05-19T09:22:22.836Z,13.6071
2023-05-19T09:23:30.819Z,13.7191
2023-05-19T09:24:38.863Z,13.7704
2023-05-19T09:25:46.981Z,13.7414
2023-05-19T09:26:55.756Z,13.6346
2023-05-19T09:28:07.868Z,13.4987
2023-05-19T09:29:15.853Z,13.4755
2023-05-19T09:30:23.885Z,13.4799
2023-05-19T09:31:32.161Z,13.3826
2023-05-19T09:32:40.165Z,13.4143
2023-05-19T09:33:48.281Z,13.3679
2023-05-19T09:34:56.529Z,13.3298
2023-05-19T09:36:04.320Z,13.2300
2023-05-19T09:37:12.370Z,13.1989
2023-05-19T09:38:20.564Z,13.3017
2023-05-19T09:39:28.553Z,13.5024
2023-05-19T09:40:36.607Z,13.7357
2023-05-19T09:41:44.667Z,13.9388
2023-05-19T09:42:52.572Z,14.0841
2023-05-19T09:44:00.678Z,14.1471
2023-05-19T09:45:08.678Z,14.3334
2023-05-19T09:46:16.885Z,14.4238
2023-05-19T09:47:24.903Z,14.5491
2023-05-19T09:48:32.991Z,14.7496
2023-05-19T09:49:41.279Z,14.8486
2023-05-19T09:50:49.260Z,14.8772
2023-05-19T09:51:57.195Z,14.7645
2023-05-19T09:53:05.261Z,14.6560
2023-05-19T09:54:13.385Z,14.5644
2023-05-19T09:55:21.358Z,14.5747
2023-05-19T09:56:29.442Z,14.4822
2023-05-19T09:57:37.358Z,14.5055
2023-05-19T09:58:45.414Z,14.7158
2023-05-19T09:59:53.487Z,14.6657
2023-05-19T10:01:01.631Z,14.5861
2023-05-19T10:02:09.760Z,14.4385
2023-05-19T10:03:17.828Z,14.3285
2023-05-19T10:04:25.922Z,14.4351
2023-05-19T10:05:34.320Z,14.5289
2023-05-19T10:06:42.296Z,14.5121
2023-05-19T10:07:50.044Z,14.5875
2023-05-19T10:08:58.157Z,14.7702
2023-05-19T10:10:06.175Z,14.8761
2023-05-19T10:11:14.209Z,14.9831
2023-05-19T10:12:22.159Z,15.0695
2023-05-19T10:13:30.232Z,15.1427
2023-05-19T10:14:38.275Z,15.2493
2023-05-19T10:15:57.327Z,15.2957
2023-05-19T10:16:59.481Z,15.3859
2023-05-19T10:18:07.545Z,15.2100
2023-05-19T10:19:15.548Z,15.0555
2023-05-19T10:20:23.573Z,14.8743
2023-05-19T10:21:31.667Z,14.9825
2023-05-19T10:22:39.753Z,15.0664
2023-05-19T10:23:47.895Z,15.2043
2023-05-19T10:24:55.820Z,15.2350
2023-05-19T10:26:03.754Z,15.2287
2023-05-19T10:27:11.834Z,15.3027
2023-05-19T10:28:19.921Z,15.3510
2023-05-19T10:29:28.129Z,15.3813
2023-05-19T10:30:36.110Z,15.1742
2023-05-19T10:31:44.338Z,14.9373
2023-05-19T10:32:52.308Z,14.8902
2023-05-19T10:34:00.398Z,14.8772
2023-05-19T10:35:08.460Z,14.9472
2023-05-19T10:36:16.535Z,14.9646
2023-05-19T10:37:24.538Z,15.0353
2023-05-19T10:38:32.543Z,14.8793
2023-05-19T10:39:40.657Z,14.9028
2023-05-19T10:40:48.543Z,14.9464
2023-05-19T10:41:56.629Z,14.9186
2023-05-19T10:43:04.672Z,14.9628
2023-05-19T10:44:12.916Z,14.8341
2023-05-19T10:45:21.127Z,14.8387
2023-05-19T10:46:28.959Z,14.6951
2023-05-19T10:47:37.046Z,14.7540
2023-05-19T10:48:45.125Z,14.7126
2023-05-19T10:49:53.344Z,14.8148
2023-05-19T10:51:01.272Z,15.1328
2023-05-19T10:52:09.369Z,15.4301
2023-05-19T10:53:17.349Z,15.4790
2023-05-19T10:54:25.689Z,15.4668
2023-05-19T10:55:33.525Z,15.4342
2023-05-19T10:56:41.443Z,15.4532
2023-05-19T10:57:49.510Z,15.5270
2023-05-19T10:58:57.644Z,15.6268
2023-05-19T11:00:05.692Z,15.7018
2023-05-19T11:01:13.837Z,15.7727
2023-05-19T11:02:21.807Z,15.9777
2023-05-19T11:04:37.913Z,16.2789
2023-05-19T11:05:46.011Z,16.1736
2023-05-19T11:06:54.117Z,16.1513
2023-05-19T11:08:02.201Z,15.9152
2023-05-19T11:09:10.160Z,15.8906
2023-05-19T11:10:18.133Z,15.9743
2023-05-19T11:11:26.202Z,16.0302
2023-05-19T11:12:34.210Z,15.9585
2023-05-19T11:13:42.405Z,15.9018
2023-05-19T11:14:50.451Z,15.8856
2023-05-19T11:15:58.562Z,15.8791
2023-05-19T11:17:06.728Z,15.8715
2023-05-19T11:18:14.703Z,15.9007
2023-05-19T11:19:22.886Z,15.8812
2023-05-19T11:20:30.794Z,15.8635
2023-05-19T11:21:38.962Z,15.9892
2023-05-19T11:22:46.892Z,16.0668
2023-05-19T11:23:55.121Z,16.2057
2023-05-19T11:25:02.865Z,16.2764
2023-05-19T11:26:10.961Z,16.1511
2023-05-19T11:27:19.109Z,15.9955
2023-05-19T11:28:27.277Z,15.8589
2023-05-19T11:29:35.245Z,15.7767
2023-05-19T11:30:43.347Z,15.6985
2023-05-19T11:31:51.555Z,15.4588
2023-05-19T11:32:59.442Z,15.4563
2023-05-19T11:34:07.503Z,15.3905
2023-05-19T11:35:15.668Z,15.5431
2023-05-19T11:36:23.630Z,15.7061
2023-05-19T11:37:31.675Z,15.7246
2023-05-19T11:38:39.690Z,15.7464
2023-05-19T11:39:47.689Z,15.8025
2023-05-19T11:40:55.749Z,15.9030
2023-05-19T11:42:03.824Z,15.9007
2023-05-19T11:43:11.915Z,15.9043
2023-05-19T11:44:20.007Z,16.2448
2023-05-19T11:45:28.079Z,16.6501
2023-05-19T11:46:36.472Z,16.8649
2023-05-19T11:48:00.827Z,17.3041
2023-05-19T11:48:57.393Z,17.6704
2023-05-19T11:50:05.215Z,17.7769
2023-05-19T11:51:13.335Z,17.7714
2023-05-19T11:52:21.383Z,18.0693
2023-05-19T11:53:29.246Z,18.2759
2023-05-19T11:54:37.332Z,18.4851
2023-05-19T11:55:45.803Z,18.6385
2023-05-19T11:56:53.713Z,18.9132
2023-05-19T11:58:04.649Z,19.3101
2023-05-19T11:59:14.546Z,19.5978
2023-05-19T12:00:22.573Z,19.9439
2023-05-19T12:01:30.637Z,19.9614
2023-05-19T12:02:38.864Z,20.0368
2023-05-19T12:03:46.922Z,20.2937
2023-05-19T12:04:54.963Z,20.2802
2023-05-19T12:06:02.961Z,20.3320
2023-05-19T12:07:10.847Z,20.3044
2023-05-19T12:08:18.997Z,20.3717
2023-05-19T12:09:27.030Z,20.1974
2023-05-19T12:10:35.133Z,20.0017
2023-05-19T12:11:43.207Z,19.7703
2023-05-19T12:12:51.226Z,19.5704
2023-05-19T12:13:59.325Z,19.5058
2023-05-19T12:15:07.347Z,19.4155
2023-05-19T12:16:15.522Z,19.1689
2023-05-19T12:17:23.602Z,19.3059
2023-05-19T12:18:31.520Z,19.4716
2023-05-19T12:19:39.593Z,19.3326
2023-05-19T12:20:47.776Z,19.2960
2023-05-19T12:21:55.675Z,19.2738
2023-05-19T12:23:03.850Z,19.2008
2023-05-19T12:24:11.812Z,19.4606
2023-05-19T12:25:19.857Z,19.5405
2023-05-19T12:26:28.049Z,19.6521
2023-05-19T12:27:35.971Z,19.9357
2023-05-19T12:28:44.156Z,19.9620
2023-05-19T12:29:52.170Z,19.8592
2023-05-19T12:31:00.332Z,19.9761
2023-05-19T12:32:08.425Z,20.2031
2023-05-19T12:33:16.468Z,20.0688
2023-05-19T12:34:24.417Z,20.2498
2023-05-19T12:35:32.488Z,20.3616
2023-05-19T12:36:40.494Z,20.5563
2023-05-19T12:37:48.524Z,20.5706
2023-05-19T12:38:56.560Z,20.4011
2023-05-19T12:40:04.845Z,20.0826
2023-05-19T12:41:13.023Z,20.2136
2023-05-19T12:42:20.831Z,20.0108
2023-05-19T12:43:28.962Z,19.7228
2023-05-19T12:44:36.963Z,19.3585
2023-05-19T12:45:45.129Z,19.2630
2023-05-19T12:46:53.235Z,19.3129
2023-05-19T12:48:01.372Z,19.2662
2023-05-19T12:49:09.313Z,19.2313
2023-05-19T12:50:17.390Z,19.0842
2023-05-19T12:51:25.367Z,18.6711
2023-05-19T12:52:33.385Z,18.6034
2023-05-19T12:53:41.436Z,18.5239
2023-05-19T12:54:49.629Z,18.3591
2023-05-19T12:55:57.746Z,18.0360
2023-05-19T12:57:05.913Z,17.7562
2023-05-19T12:58:13.874Z,17.3514
2023-05-19T12:59:37.093Z,17.2196
2023-05-19T13:00:34.987Z,17.2677
2023-05-19T13:01:42.912Z,17.1576
2023-05-19T13:02:51.110Z,16.9816
2023-05-19T13:03:59.206Z,17.2108
2023-05-19T13:05:06.920Z,17.2980
2023-05-19T13:06:14.991Z,17.2795
2023-05-19T13:07:23.042Z,17.5242
2023-05-19T13:08:31.469Z,17.5792
2023-05-19T13:09:39.274Z,17.7205
2023-05-19T13:10:47.589Z,17.9808
2023-05-19T13:11:55.450Z,18.1578
2023-05-19T13:13:03.552Z,18.4554
2023-05-19T13:14:11.515Z,18.3991
2023-05-19T13:15:19.595Z,18.2553
2023-05-19T13:16:27.671Z,18.2135
2023-05-19T13:17:35.768Z,17.9341
2023-05-19T13:18:43.816Z,17.5708
2023-05-19T13:19:51.824Z,17.2015
2023-05-19T13:20:59.819Z,17.0491
2023-05-19T13:22:07.951Z,16.7479
2023-05-19T13:23:16.212Z,16.7113
2023-05-19T13:24:24.336Z,16.4115
2023-05-19T13:25:32.220Z,16.2465
2023-05-19T13:26:40.265Z,16.0279
2023-05-19T13:27:48.334Z,15.9964
2023-05-19T13:28:56.361Z,16.1172
2023-05-19T13:30:04.451Z,16.1155
2023-05-19T13:31:12.533Z,16.1547
2023-05-19T13:32:20.639Z,16.1881
2023-05-19T13:33:28.504Z,16.1639
2023-05-19T13:34:36.539Z,16.2379
2023-05-19T13:35:44.636Z,16.2776
2023-05-19T13:36:52.709Z,16.1805
2023-05-19T13:38:00.897Z,16.1111
2023-05-19T13:39:09.077Z,16.0510
2023-05-19T13:40:17.042Z,16.0851
2023-05-19T13:41:25.044Z,16.0922
2023-05-19T13:42:33.148Z,15.9133
2023-05-19T13:43:41.211Z,15.8044
2023-05-19T13:44:49.237Z,15.8206
2023-05-19T13:45:57.454Z,15.9026
2023-05-19T13:47:05.347Z,15.8828